Time;durP1;ratioP1;P1;durP2;ratioP2;P2;SDS_P1;SDS_P2;PMS_P1;PMS_P2;Temp;Humidity;BMP_temperature;BMP_pressure;BME280_temperature;BME280_humidity;BME280_pressure;Samples;Min_cycle;Max_cycle;Signal;HPM_P1;HPM_P2
2021/11/25 00:02:14;;;;;;;6.43;5.53;;;;;;;;;;5116575;28;20208;-45
2021/11/25 00:04:40;;;;;;;5.47;4.97;;;;;;;;;;5111704;28;20328;-45
2021/11/25 00:07:06;;;;;;;5.80;4.43;;;;;;;;;;5117963;28;20212;-45
2021/11/25 00:09:32;;;;;;;5.35;4.85;;;;;;;;;;5122036;28;20204;-45
2021/11/25 00:11:58;;;;;;;5.63;4.95;;;;;;;;;;5114856;28;20308;-45
2021/11/25 00:14:24;;;;;;;5.82;5.30;;;;;;;;;;5118334;28;20177;-45
2021/11/25 00:16:50;;;;;;;5.40;4.80;;;;;;;;;;5121299;28;20558;-45
2021/11/25 00:19:16;;;;;;;5.53;4.93;;;;;;;;;;5120893;28;20184;-45
2021/11/25 00:21:42;;;;;;;5.95;5.32;;;;;;;;;;5115628;28;20172;-45
2021/11/25 00:24:09;;;;;;;5.97;5.38;;;;;;;;;;5122182;28;20173;-45
2021/11/25 00:26:36;;;;;;;5.43;4.93;;;;;;;;;;5117928;28;20201;-46
2021/11/25 00:29:03;;;;;;;5.93;5.03;;;;;;;;;;5120430;28;20230;-46
2021/11/25 00:31:30;;;;;;;5.85;4.70;;;;;;;;;;5118949;27;20188;-46
2021/11/25 00:33:56;;;;;;;5.85;5.18;;;;;;;;;;5125092;27;20179;-46
2021/11/25 00:36:22;;;;;;;6.90;4.80;;;;;;;;;;5122488;27;20182;-46
2021/11/25 00:38:48;;;;;;;5.05;4.55;;;;;;;;;;5103148;28;20181;-46
2021/11/25 00:41:14;;;;;;;5.25;4.75;;;;;;;;;;5109644;28;20231;-46
2021/11/25 00:43:40;;;;;;;5.70;5.05;;;;;;;;;;5097787;28;20232;-45
2021/11/25 00:46:06;;;;;;;5.75;5.15;;;;;;;;;;5108346;28;20192;-45
2021/11/25 00:48:32;;;;;;;5.45;4.95;;;;;;;;;;5122408;27;20191;-45
2021/11/25 00:50:58;;;;;;;5.28;4.78;;;;;;;;;;5124734;27;20181;-45
2021/11/25 00:53:25;;;;;;;5.70;4.40;;;;;;;;;;5123873;27;20261;-45
2021/11/25 00:55:51;;;;;;;5.53;4.90;;;;;;;;;;5122833;27;20225;-45
2021/11/25 00:58:20;;;;;;;4.82;4.35;;;;;;;;;;5126364;27;20168;-45
2021/11/25 01:00:46;;;;;;;6.05;4.95;;;;;;;;;;5117874;27;20251;-46
2021/11/25 01:03:12;;;;;;;6.05;4.32;;;;;;;;;;5117810;27;20238;-45
2021/11/25 01:05:38;;;;;;;5.15;4.57;;;;;;;;;;5124939;27;20192;-46
2021/11/25 01:08:04;;;;;;;5.30;4.80;;;;;;;;;;5116670;27;20201;-45
2021/11/25 01:10:30;;;;;;;5.68;4.45;;;;;;;;;;5125588;27;20177;-45
2021/11/25 01:12:57;;;;;;;4.95;4.45;;;;;;;;;;5120229;27;20181;-45
2021/11/25 01:15:29;;;;;;;4.88;4.38;;;;;;;;;;5123870;27;20185;-45
2021/11/25 01:18:13;;;;;;;5.18;4.68;;;;;;;;;;5124322;27;20595;-45
2021/11/25 01:20:40;;;;;;;5.65;4.82;;;;;;;;;;5117619;27;20268;-45
2021/11/25 01:23:07;;;;;;;6.03;4.95;;;;;;;;;;5122760;27;20304;-45
2021/11/25 01:25:34;;;;;;;4.68;4.28;;;;;;;;;;5125540;27;20208;-45
2021/11/25 01:28:00;;;;;;;5.20;4.70;;;;;;;;;;5122172;27;20196;-45
2021/11/25 01:30:26;;;;;;;4.75;4.10;;;;;;;;;;5129035;27;20172;-45
2021/11/25 01:32:52;;;;;;;4.80;4.40;;;;;;;;;;5125449;27;20256;-45
2021/11/25 01:35:19;;;;;;;4.97;4.25;;;;;;;;;;5117636;27;20186;-45
2021/11/25 01:37:45;;;;;;;5.13;4.50;;;;;;;;;;5119285;27;20180;-45
2021/11/25 01:40:13;;;;;;;5.32;4.35;;;;;;;;;;5127472;27;20177;-45
2021/11/25 01:42:40;;;;;;;4.82;4.32;;;;;;;;;;5117027;27;20183;-45
2021/11/25 01:45:06;;;;;;;4.93;4.35;;;;;;;;;;5117228;27;20189;-45
2021/11/25 01:47:32;;;;;;;5.70;4.63;;;;;;;;;;5125198;27;20282;-45
2021/11/25 01:49:58;;;;;;;4.30;3.90;;;;;;;;;;5124423;27;20178;-45
2021/11/25 01:52:24;;;;;;;6.65;4.30;;;;;;;;;;5122149;27;20277;-45
2021/11/25 01:54:50;;;;;;;4.22;3.83;;;;;;;;;;5117809;27;20245;-45
2021/11/25 01:57:16;;;;;;;5.55;4.22;;;;;;;;;;5121538;27;20185;-45
2021/11/25 01:59:42;;;;;;;4.82;4.32;;;;;;;;;;5128191;27;20191;-45
2021/11/25 02:02:09;;;;;;;4.65;4.10;;;;;;;;;;5114856;27;20201;-45
2021/11/25 02:04:35;;;;;;;4.50;4.10;;;;;;;;;;5117676;27;20191;-45
2021/11/25 02:07:01;;;;;;;5.32;4.13;;;;;;;;;;5119121;27;20205;-45
2021/11/25 02:09:27;;;;;;;4.88;3.92;;;;;;;;;;5123424;27;20543;-46
2021/11/25 02:11:53;;;;;;;4.45;3.92;;;;;;;;;;5111635;27;20174;-46
2021/11/25 02:14:20;;;;;;;7.05;4.40;;;;;;;;;;5121514;27;20321;-45
2021/11/25 02:16:49;;;;;;;6.60;4.53;;;;;;;;;;5106883;27;20185;-45
2021/11/25 02:19:16;;;;;;;4.93;3.88;;;;;;;;;;5115512;27;20180;-45
2021/11/25 02:21:42;;;;;;;5.00;4.07;;;;;;;;;;5118478;27;20188;-45
2021/11/25 02:24:08;;;;;;;4.28;3.88;;;;;;;;;;5123959;27;20180;-46
2021/11/25 02:26:34;;;;;;;5.10;4.35;;;;;;;;;;5104111;27;20201;-45
2021/11/25 02:29:00;;;;;;;4.18;3.78;;;;;;;;;;5118517;27;20192;-45
2021/11/25 02:31:26;;;;;;;4.15;3.75;;;;;;;;;;5120919;27;20196;-46
2021/11/25 02:33:52;;;;;;;5.00;4.30;;;;;;;;;;5111142;27;20276;-45
2021/11/25 02:36:18;;;;;;;3.97;3.65;;;;;;;;;;5120772;27;20260;-45
2021/11/25 02:38:44;;;;;;;4.97;3.70;;;;;;;;;;5123562;27;20269;-45
2021/11/25 02:41:10;;;;;;;3.92;3.63;;;;;;;;;;5122136;27;20563;-45
2021/11/25 02:43:36;;;;;;;4.20;3.80;;;;;;;;;;5121145;27;20180;-45
2021/11/25 02:46:02;;;;;;;3.72;3.40;;;;;;;;;;5119542;27;20185;-45
2021/11/25 02:48:33;;;;;;;4.53;4.03;;;;;;;;;;5108826;27;20192;-45
2021/11/25 02:51:00;;;;;;;4.13;3.72;;;;;;;;;;5121939;27;20213;-45
2021/11/25 02:53:30;;;;;;;4.22;3.83;;;;;;;;;;5123635;27;20802;-45
2021/11/25 02:55:57;;;;;;;5.32;3.70;;;;;;;;;;5117774;27;20416;-45
2021/11/25 02:58:23;;;;;;;4.18;3.78;;;;;;;;;;5125056;27;20186;-45
2021/11/25 03:00:49;;;;;;;4.13;3.72;;;;;;;;;;5110228;27;20225;-45
2021/11/25 03:03:17;;;;;;;4.20;3.80;;;;;;;;;;5116677;27;20189;-45
2021/11/25 03:05:44;;;;;;;5.03;3.80;;;;;;;;;;5123823;27;20180;-45
2021/11/25 03:08:12;;;;;;;3.80;3.50;;;;;;;;;;5117516;27;20261;-45
2021/11/25 03:10:39;;;;;;;3.88;3.55;;;;;;;;;;5120229;27;20176;-45
2021/11/25 03:13:07;;;;;;;4.97;3.78;;;;;;;;;;5117964;27;20567;-45
2021/11/25 03:15:34;;;;;;;4.05;3.65;;;;;;;;;;5120928;27;20273;-45
2021/11/25 03:17:59;;;;;;;4.80;3.72;;;;;;;;;;5110933;27;20240;-45
2021/11/25 03:20:26;;;;;;;4.07;3.67;;;;;;;;;;5123685;27;20193;-45
2021/11/25 03:22:52;;;;;;;4.00;3.60;;;;;;;;;;5114329;27;20181;-45
2021/11/25 03:25:18;;;;;;;4.00;3.60;;;;;;;;;;5119545;27;20271;-45
2021/11/25 03:27:44;;;;;;;4.18;3.65;;;;;;;;;;5119074;27;20201;-45
2021/11/25 03:30:11;;;;;;;4.53;3.80;;;;;;;;;;5122965;27;20177;-45
2021/11/25 03:32:37;;;;;;;4.55;3.65;;;;;;;;;;5115295;27;20172;-46
2021/11/25 03:35:03;;;;;;;3.75;3.35;;;;;;;;;;5126423;27;20176;-45
2021/11/25 03:37:29;;;;;;;4.00;3.60;;;;;;;;;;5114800;27;20180;-45
2021/11/25 03:39:55;;;;;;;4.63;3.30;;;;;;;;;;5123196;27;20181;-45
2021/11/25 03:42:21;;;;;;;3.92;3.58;;;;;;;;;;5105017;28;20224;-45
2021/11/25 03:44:47;;;;;;;3.70;3.30;;;;;;;;;;5104721;28;20173;-45
2021/11/25 03:47:13;;;;;;;3.97;3.58;;;;;;;;;;5112967;28;20199;-45
2021/11/25 03:49:41;;;;;;;3.53;3.22;;;;;;;;;;5124873;28;20176;-45
2021/11/25 03:52:07;;;;;;;3.78;3.38;;;;;;;;;;5116318;28;20177;-45
2021/11/25 03:54:33;;;;;;;3.90;3.50;;;;;;;;;;5123452;28;20206;-45
2021/11/25 03:56:59;;;;;;;4.10;3.70;;;;;;;;;;5108563;28;20169;-45
2021/11/25 03:59:25;;;;;;;4.10;3.33;;;;;;;;;;5124076;28;20181;-45
2021/11/25 04:01:51;;;;;;;4.05;3.13;;;;;;;;;;5110189;28;20203;-45
2021/11/25 04:04:17;;;;;;;3.80;3.47;;;;;;;;;;5106934;28;20598;-45
2021/11/25 04:06:43;;;;;;;3.97;3.50;;;;;;;;;;5116581;27;20288;-45
2021/11/25 04:09:09;;;;;;;3.80;3.10;;;;;;;;;;5114760;27;20322;-45
2021/11/25 04:11:35;;;;;;;3.42;3.13;;;;;;;;;;5117641;27;20184;-45
2021/11/25 04:14:03;;;;;;;4.10;3.53;;;;;;;;;;5113400;27;20222;-45
2021/11/25 04:16:29;;;;;;;3.70;3.33;;;;;;;;;;5116285;27;20229;-45
2021/11/25 04:18:56;;;;;;;3.45;2.95;;;;;;;;;;5123203;27;20181;-45
2021/11/25 04:21:22;;;;;;;4.18;3.35;;;;;;;;;;5129755;27;20211;-45
2021/11/25 04:23:48;;;;;;;3.45;3.15;;;;;;;;;;5123079;27;20212;-45
2021/11/25 04:26:14;;;;;;;2.88;2.67;;;;;;;;;;5120571;27;20304;-45
2021/11/25 04:28:40;;;;;;;3.83;3.20;;;;;;;;;;5125704;27;20169;-45
2021/11/25 04:36:35;;;;;;;4.00;3.60;;;;;;;;;;5105882;27;20523;-45
2021/11/25 04:39:01;;;;;;;3.70;3.40;;;;;;;;;;5116085;27;20188;-45
2021/11/25 04:41:27;;;;;;;3.25;2.95;;;;;;;;;;5108480;27;20285;-45
2021/11/25 04:43:53;;;;;;;3.33;3.00;;;;;;;;;;5120760;27;20180;-45
2021/11/25 04:46:19;;;;;;;3.35;3.05;;;;;;;;;;5116044;27;20209;-45
2021/11/25 04:48:45;;;;;;;3.65;3.30;;;;;;;;;;5126256;27;20181;-45
2021/11/25 04:51:12;;;;;;;3.88;3.45;;;;;;;;;;5129312;27;20253;-45
2021/11/25 04:53:38;;;;;;;4.00;3.03;;;;;;;;;;5119848;27;20196;-45
2021/11/25 04:56:04;;;;;;;5.10;3.35;;;;;;;;;;5124340;27;20215;-45
2021/11/25 04:58:30;;;;;;;3.13;2.80;;;;;;;;;;5116409;27;20169;-45
2021/11/25 05:00:56;;;;;;;2.95;2.60;;;;;;;;;;5120101;27;20200;-46
2021/11/25 05:03:22;;;;;;;4.22;3.20;;;;;;;;;;5119201;27;20196;-46
2021/11/25 05:05:48;;;;;;;3.30;2.80;;;;;;;;;;5121596;27;20177;-45
2021/11/25 05:08:14;;;;;;;4.70;3.33;;;;;;;;;;5108541;27;20210;-45
2021/11/25 05:10:40;;;;;;;5.03;3.00;;;;;;;;;;5129183;27;20255;-45
2021/11/25 05:13:06;;;;;;;7.00;3.58;;;;;;;;;;5113491;27;20178;-45
2021/11/25 05:15:32;;;;;;;5.18;3.38;;;;;;;;;;5127602;27;20181;-45
2021/11/25 05:17:58;;;;;;;5.00;3.47;;;;;;;;;;5118785;27;20618;-45
2021/11/25 05:20:25;;;;;;;5.10;3.75;;;;;;;;;;5122763;27;20211;-45
2021/11/25 05:22:51;;;;;;;6.40;3.58;;;;;;;;;;5117732;27;20199;-45
2021/11/25 05:25:17;;;;;;;4.88;3.55;;;;;;;;;;5121528;27;20166;-45
2021/11/25 05:27:44;;;;;;;6.63;4.05;;;;;;;;;;5127213;27;20574;-45
2021/11/25 05:30:10;;;;;;;20.60;7.18;;;;;;;;;;5118576;27;20173;-45
2021/11/25 05:32:37;;;;;;;32.05;9.65;;;;;;;;;;5122818;27;20287;-45
2021/11/25 05:35:03;;;;;;;37.53;9.55;;;;;;;;;;5124160;27;20535;-45
2021/11/25 05:37:29;;;;;;;36.53;10.57;;;;;;;;;;5121267;27;20181;-45
2021/11/25 05:39:55;;;;;;;38.40;10.50;;;;;;;;;;5125452;27;20475;-45
2021/11/25 05:42:21;;;;;;;43.03;12.63;;;;;;;;;;5132546;27;20173;-45
2021/11/25 05:44:47;;;;;;;51.72;12.95;;;;;;;;;;5124496;27;20184;-45
2021/11/25 05:47:14;;;;;;;42.00;13.32;;;;;;;;;;5111153;27;20254;-45
2021/11/25 05:49:40;;;;;;;46.83;14.07;;;;;;;;;;5127122;27;20550;-45
2021/11/25 05:52:06;;;;;;;49.17;14.55;;;;;;;;;;5119495;27;20164;-45
2021/11/25 05:54:32;;;;;;;40.33;12.68;;;;;;;;;;5123766;27;20288;-45
2021/11/25 05:56:58;;;;;;;45.28;14.90;;;;;;;;;;5115899;28;20298;-45
2021/11/25 05:59:24;;;;;;;44.58;13.18;;;;;;;;;;5124586;27;20187;-45
2021/11/25 06:01:50;;;;;;;48.97;14.07;;;;;;;;;;5119892;27;20172;-45
2021/11/25 06:04:16;;;;;;;52.40;13.02;;;;;;;;;;5117811;27;20223;-45
2021/11/25 06:06:42;;;;;;;40.35;13.10;;;;;;;;;;5122510;27;20204;-45
2021/11/25 06:09:08;;;;;;;39.20;13.55;;;;;;;;;;5124458;27;20169;-45
2021/11/25 06:11:34;;;;;;;45.03;13.93;;;;;;;;;;5118648;27;20164;-45
2021/11/25 06:14:00;;;;;;;37.40;12.95;;;;;;;;;;5122512;27;20199;-45
2021/11/25 06:16:26;;;;;;;37.67;12.55;;;;;;;;;;5115729;27;20185;-45
2021/11/25 06:18:52;;;;;;;43.00;13.93;;;;;;;;;;5120350;27;20211;-45
2021/11/25 06:21:18;;;;;;;36.97;12.88;;;;;;;;;;5134049;27;20177;-45
2021/11/25 06:23:45;;;;;;;39.28;12.60;;;;;;;;;;5118598;27;20188;-45
2021/11/25 06:26:11;;;;;;;41.28;12.85;;;;;;;;;;5119483;27;20719;-45
2021/11/25 06:28:37;;;;;;;37.55;11.65;;;;;;;;;;5123434;27;20204;-45
2021/11/25 06:31:03;;;;;;;32.75;12.10;;;;;;;;;;5112038;27;20264;-45
2021/11/25 06:33:29;;;;;;;34.47;11.75;;;;;;;;;;5112645;27;20184;-45
2021/11/25 06:35:55;;;;;;;29.23;11.02;;;;;;;;;;5105558;27;20186;-45
2021/11/25 06:38:21;;;;;;;37.60;11.52;;;;;;;;;;5102778;27;20181;-45
2021/11/25 06:40:49;;;;;;;33.38;11.88;;;;;;;;;;5121618;27;20173;-45
2021/11/25 06:43:15;;;;;;;31.85;11.25;;;;;;;;;;5114472;28;20266;-45
2021/11/25 06:45:42;;;;;;;31.08;12.48;;;;;;;;;;5114817;28;20173;-45
2021/11/25 06:48:08;;;;;;;27.02;11.30;;;;;;;;;;5113936;28;20560;-45
2021/11/25 06:50:34;;;;;;;31.67;11.45;;;;;;;;;;5115371;28;20165;-45
2021/11/25 06:53:00;;;;;;;25.10;10.77;;;;;;;;;;5115026;28;20173;-45
2021/11/25 06:55:26;;;;;;;24.70;10.93;;;;;;;;;;5106989;28;20272;-45
2021/11/25 06:57:53;;;;;;;31.77;11.10;;;;;;;;;;5118697;27;20187;-45
2021/11/25 07:00:22;;;;;;;26.60;10.13;;;;;;;;;;5119377;27;20198;-45
2021/11/25 07:02:49;;;;;;;25.08;11.18;;;;;;;;;;5118652;27;20186;-45
2021/11/25 07:05:15;;;;;;;25.27;9.70;;;;;;;;;;5120440;27;20221;-45
2021/11/25 07:07:43;;;;;;;25.27;10.05;;;;;;;;;;5117735;27;20236;-45
2021/11/25 07:10:13;;;;;;;26.73;10.82;;;;;;;;;;5114072;27;20591;-45
2021/11/25 07:12:39;;;;;;;26.27;9.30;;;;;;;;;;5119681;27;20173;-45
2021/11/25 07:15:06;;;;;;;25.40;9.55;;;;;;;;;;5124564;27;20179;-45
2021/11/25 07:17:32;;;;;;;19.65;9.57;;;;;;;;;;5115458;27;20184;-45
2021/11/25 07:19:58;;;;;;;23.30;9.98;;;;;;;;;;5126459;27;20579;-45
2021/11/25 07:22:26;;;;;;;23.38;9.13;;;;;;;;;;5130397;27;20181;-45
2021/11/25 07:24:52;;;;;;;20.60;9.05;;;;;;;;;;5124629;27;20227;-45
2021/11/25 07:27:18;;;;;;;19.25;8.82;;;;;;;;;;5118790;27;20196;-45
2021/11/25 07:29:44;;;;;;;25.50;10.30;;;;;;;;;;5113153;27;20611;-45
2021/11/25 07:32:10;;;;;;;23.63;9.23;;;;;;;;;;5133758;27;20251;-45
2021/11/25 07:34:36;;;;;;;21.27;8.90;;;;;;;;;;5133033;27;20247;-45
2021/11/25 07:37:03;;;;;;;17.27;9.38;;;;;;;;;;5134790;27;20225;-45
2021/11/25 07:39:29;;;;;;;16.13;8.35;;;;;;;;;;5122725;27;20597;-45
2021/11/25 07:41:55;;;;;;;21.25;8.75;;;;;;;;;;5113144;28;20201;-45
2021/11/25 07:44:21;;;;;;;18.75;8.43;;;;;;;;;;5093556;28;20234;-45
2021/11/25 07:46:47;;;;;;;17.35;7.97;;;;;;;;;;5094139;28;20190;-45
2021/11/25 07:49:13;;;;;;;20.80;8.68;;;;;;;;;;5093699;28;20177;-45
2021/11/25 07:51:40;;;;;;;17.63;8.15;;;;;;;;;;5076339;28;20433;-45
2021/11/25 07:54:09;;;;;;;14.60;7.63;;;;;;;;;;5093549;28;20200;-45
2021/11/25 07:56:36;;;;;;;17.83;7.40;;;;;;;;;;5093974;28;20223;-45
2021/11/25 07:59:02;;;;;;;16.05;7.45;;;;;;;;;;5113127;28;20185;-45
2021/11/25 08:01:28;;;;;;;15.98;8.10;;;;;;;;;;5112172;28;20169;-45
2021/11/25 08:03:54;;;;;;;18.00;7.95;;;;;;;;;;5113416;28;20181;-45
2021/11/25 08:06:20;;;;;;;15.88;7.25;;;;;;;;;;5113697;28;20235;-45
2021/11/25 08:08:46;;;;;;;13.48;7.40;;;;;;;;;;5114040;28;20184;-45
2021/11/25 08:11:12;;;;;;;14.68;6.93;;;;;;;;;;5114080;28;20172;-45
2021/11/25 08:13:38;;;;;;;14.98;7.18;;;;;;;;;;5113660;28;20161;-45
2021/11/25 08:16:05;;;;;;;14.00;7.07;;;;;;;;;;5113229;28;20170;-46
2021/11/25 08:18:31;;;;;;;14.77;7.18;;;;;;;;;;5113251;28;20580;-45
2021/11/25 08:20:57;;;;;;;14.98;6.93;;;;;;;;;;5114206;28;20176;-45
2021/11/25 08:23:23;;;;;;;12.73;6.10;;;;;;;;;;5114126;28;20212;-45
2021/11/25 08:25:50;;;;;;;14.82;6.90;;;;;;;;;;5097306;28;20491;-45
2021/11/25 08:28:16;;;;;;;13.77;6.57;;;;;;;;;;5100535;28;20231;-45
2021/11/25 08:30:42;;;;;;;16.70;6.68;;;;;;;;;;5115328;28;20816;-45
2021/11/25 08:33:08;;;;;;;12.65;6.50;;;;;;;;;;5114499;28;20176;-45
2021/11/25 08:35:34;;;;;;;13.40;6.72;;;;;;;;;;5112518;28;20169;-45
2021/11/25 08:38:02;;;;;;;11.07;5.85;;;;;;;;;;5113232;28;20173;-45
2021/11/25 08:40:29;;;;;;;12.30;6.07;;;;;;;;;;5093225;28;20173;-45
2021/11/25 08:42:55;;;;;;;15.43;7.03;;;;;;;;;;5093195;28;20173;-45
2021/11/25 08:45:21;;;;;;;9.35;5.93;;;;;;;;;;5092639;28;20185;-45
2021/11/25 08:47:47;;;;;;;10.30;6.10;;;;;;;;;;5106101;28;20197;-45
2021/11/25 08:50:13;;;;;;;13.80;6.20;;;;;;;;;;5113874;28;20528;-45
2021/11/25 08:52:39;;;;;;;10.23;5.53;;;;;;;;;;5114979;28;20646;-45
2021/11/25 08:55:06;;;;;;;11.65;6.25;;;;;;;;;;5117080;28;20531;-45
2021/11/25 08:57:32;;;;;;;10.13;5.43;;;;;;;;;;5117374;28;20313;-45
2021/11/25 08:59:58;;;;;;;9.77;5.70;;;;;;;;;;5115159;28;20169;-45
2021/11/25 09:02:24;;;;;;;9.43;5.57;;;;;;;;;;5110282;27;20183;-45
2021/11/25 09:04:50;;;;;;;8.57;5.40;;;;;;;;;;5116236;27;20200;-44
2021/11/25 09:07:16;;;;;;;10.15;5.30;;;;;;;;;;5120840;27;20212;-44
2021/11/25 09:09:42;;;;;;;9.23;4.95;;;;;;;;;;5127439;27;20177;-44
2021/11/25 09:12:08;;;;;;;10.50;5.55;;;;;;;;;;5125432;27;20539;-44
2021/11/25 09:14:35;;;;;;;8.35;5.05;;;;;;;;;;5116032;27;20749;-46
2021/11/25 09:17:01;;;;;;;8.82;5.15;;;;;;;;;;5117421;27;20234;-45
2021/11/25 09:19:27;;;;;;;8.82;5.05;;;;;;;;;;5123016;27;20219;-45
2021/11/25 09:21:55;;;;;;;9.38;5.28;;;;;;;;;;5123895;27;20180;-45
2021/11/25 09:24:21;;;;;;;10.30;5.20;;;;;;;;;;5121381;27;20257;-45
2021/11/25 09:26:47;;;;;;;10.55;5.43;;;;;;;;;;5125962;27;20192;-45
2021/11/25 09:29:14;;;;;;;8.07;4.60;;;;;;;;;;5117222;27;20335;-45
2021/11/25 09:31:40;;;;;;;7.90;5.00;;;;;;;;;;5118390;27;20173;-45
2021/11/25 09:34:07;;;;;;;7.28;4.50;;;;;;;;;;5121310;27;20217;-45
2021/11/25 09:36:34;;;;;;;10.07;4.82;;;;;;;;;;5116486;27;20188;-45
2021/11/25 09:39:00;;;;;;;8.82;4.97;;;;;;;;;;5120656;27;20184;-45
2021/11/25 09:41:27;;;;;;;9.10;5.10;;;;;;;;;;5117339;27;20239;-45
2021/11/25 09:43:53;;;;;;;7.43;4.70;;;;;;;;;;5118629;27;20181;-45
2021/11/25 09:46:21;;;;;;;9.05;5.28;;;;;;;;;;5109584;27;20241;-45
2021/11/25 09:48:48;;;;;;;7.45;4.55;;;;;;;;;;5123205;27;20177;-45
2021/11/25 09:51:14;;;;;;;7.82;5.10;;;;;;;;;;5120766;27;20559;-45
2021/11/25 09:53:40;;;;;;;7.45;4.75;;;;;;;;;;5119888;27;20233;-45
2021/11/25 09:56:07;;;;;;;7.15;4.82;;;;;;;;;;5132896;27;20449;-45
2021/11/25 09:58:35;;;;;;;5.93;4.25;;;;;;;;;;5128557;27;20597;-45
2021/11/25 10:01:06;;;;;;;6.85;4.25;;;;;;;;;;5111824;27;20213;-45
2021/11/25 10:03:33;;;;;;;7.22;4.82;;;;;;;;;;5125411;27;20303;-45
2021/11/25 10:06:00;;;;;;;7.18;4.38;;;;;;;;;;5126405;27;20219;-45
2021/11/25 10:08:29;;;;;;;6.40;4.20;;;;;;;;;;5117435;27;20215;-45
2021/11/25 10:11:05;;;;;;;5.10;4.00;;;;;;;;;;5121782;27;20181;-45
2021/11/25 10:13:55;;;;;;;6.93;4.43;;;;;;;;;;5126582;27;20176;-45
2021/11/25 10:16:27;;;;;;;5.40;4.05;;;;;;;;;;5107341;27;20187;-45
2021/11/25 10:18:54;;;;;;;6.63;4.38;;;;;;;;;;5119584;27;20435;-45
2021/11/25 10:21:21;;;;;;;7.82;3.97;;;;;;;;;;5119711;27;20504;-45
2021/11/25 10:23:48;;;;;;;5.10;4.05;;;;;;;;;;5114444;27;20178;-45
2021/11/25 10:26:20;;;;;;;7.70;4.57;;;;;;;;;;5121290;27;20203;-45
2021/11/25 10:28:48;;;;;;;5.88;3.75;;;;;;;;;;5112705;27;20196;-45
2021/11/25 10:31:15;;;;;;;6.70;3.97;;;;;;;;;;5118890;27;20585;-45
2021/11/25 10:33:53;;;;;;;6.28;3.90;;;;;;;;;;5121956;27;20227;-45
2021/11/25 10:36:32;;;;;;;4.57;3.60;;;;;;;;;;5125027;27;20161;-45
2021/11/25 10:39:07;;;;;;;5.72;3.72;;;;;;;;;;5126590;27;20487;-45
2021/11/25 10:41:34;;;;;;;6.65;4.35;;;;;;;;;;5103548;27;20176;-44
2021/11/25 10:44:10;;;;;;;6.38;3.70;;;;;;;;;;5107192;27;20173;-44
2021/11/25 10:46:46;;;;;;;5.22;3.40;;;;;;;;;;5108026;27;20587;-44
2021/11/25 10:49:12;;;;;;;6.25;3.53;;;;;;;;;;5108768;27;20181;-44
2021/11/25 10:51:39;;;;;;;8.02;3.85;;;;;;;;;;5122305;27;20257;-44
2021/11/25 10:54:14;;;;;;;8.63;4.07;;;;;;;;;;5111048;27;20876;-45
2021/11/25 10:56:45;;;;;;;6.85;4.03;;;;;;;;;;5120566;27;20160;-45
2021/11/25 10:59:14;;;;;;;5.60;3.25;;;;;;;;;;5125117;27;20180;-45
2021/11/25 11:01:41;;;;;;;4.65;3.58;;;;;;;;;;5115248;27;20181;-45
2021/11/25 11:04:07;;;;;;;6.03;3.42;;;;;;;;;;5119735;27;20207;-44
2021/11/25 11:06:35;;;;;;;5.25;3.20;;;;;;;;;;5103830;27;20442;-44
2021/11/25 11:09:03;;;;;;;6.13;3.75;;;;;;;;;;5117468;27;20560;-44
2021/11/25 11:11:30;;;;;;;5.40;3.42;;;;;;;;;;5112121;27;20215;-45
2021/11/25 11:14:51;;;;;;;7.15;3.58;;;;;;;;;;5118977;27;20177;-44
2021/11/25 11:17:28;;;;;;;5.55;3.85;;;;;;;;;;5112327;27;20592;-44
2021/11/25 11:20:15;;;;;;;5.35;3.28;;;;;;;;;;5117041;27;20203;-44
2021/11/25 11:22:41;;;;;;;6.97;3.78;;;;;;;;;;5109857;27;20204;-44
2021/11/25 11:25:08;;;;;;;7.35;3.58;;;;;;;;;;5117854;27;20177;-45
2021/11/25 11:27:34;;;;;;;173.05;38.90;;;;;;;;;;5107382;27;20245;-44
2021/11/25 11:30:00;;;;;;;272.40;70.75;;;;;;;;;;5111973;27;20200;-45
2021/11/25 11:32:27;;;;;;;150.30;40.70;;;;;;;;;;5097386;28;20192;-45
2021/11/25 11:34:53;;;;;;;150.70;41.97;;;;;;;;;;5106077;27;20184;-44
2021/11/25 11:37:20;;;;;;;202.25;55.83;;;;;;;;;;5110584;27;20275;-44
2021/11/25 11:39:47;;;;;;;213.23;58.75;;;;;;;;;;5122048;27;20218;-44
2021/11/25 11:42:15;;;;;;;193.70;58.50;;;;;;;;;;5121070;27;20263;-45
2021/11/25 11:44:41;;;;;;;213.93;62.47;;;;;;;;;;5102173;28;20176;-45
2021/11/25 11:47:08;;;;;;;214.65;64.35;;;;;;;;;;5111741;28;20205;-45
2021/11/25 11:49:36;;;;;;;235.90;69.55;;;;;;;;;;5125502;28;20184;-44
2021/11/25 11:52:23;;;;;;;226.02;68.65;;;;;;;;;;5117244;28;20281;-44
2021/11/25 11:54:57;;;;;;;224.02;65.72;;;;;;;;;;5120565;28;20320;-44
2021/11/25 11:57:32;;;;;;;197.57;62.17;;;;;;;;;;5105673;28;20182;-44
2021/11/25 12:00:00;;;;;;;200.75;62.05;;;;;;;;;;5096598;28;20188;-44
2021/11/25 12:02:46;;;;;;;187.68;61.47;;;;;;;;;;5112748;28;20269;-44
2021/11/25 12:05:32;;;;;;;189.25;58.95;;;;;;;;;;5096266;28;20201;-44
2021/11/25 12:08:18;;;;;;;184.75;58.33;;;;;;;;;;5113593;28;20198;-44
2021/11/25 12:10:56;;;;;;;164.70;55.30;;;;;;;;;;5114093;28;20161;-44
2021/11/25 12:13:24;;;;;;;167.95;53.35;;;;;;;;;;5112184;28;20443;-44
2021/11/25 12:15:50;;;;;;;161.32;52.90;;;;;;;;;;5111345;28;20177;-44
2021/11/25 12:18:32;;;;;;;159.75;51.08;;;;;;;;;;5093657;28;20174;-44
2021/11/25 12:21:02;;;;;;;156.75;50.75;;;;;;;;;;5094064;28;20505;-44
2021/11/25 12:23:39;;;;;;;168.63;49.28;;;;;;;;;;5102108;28;20569;-45
2021/11/25 12:26:06;;;;;;;155.32;48.40;;;;;;;;;;5114455;28;20244;-45
2021/11/25 12:28:38;;;;;;;131.30;45.97;;;;;;;;;;5122123;27;20218;-44
2021/11/25 12:31:32;;;;;;;133.38;47.00;;;;;;;;;;5113091;27;20204;-44
2021/11/25 12:33:53;;;;;;;129.88;43.70;;;;;;;;;;5105187;27;20189;-44
2021/11/25 12:36:34;;;;;;;114.40;41.60;;;;;;;;;;5107277;28;20570;-44
2021/11/25 12:39:01;;;;;;;122.63;41.53;;;;;;;;;;5110617;28;20409;-44
2021/11/25 12:41:27;;;;;;;123.15;42.25;;;;;;;;;;5103231;28;20197;-44
2021/11/25 12:43:53;;;;;;;108.00;39.88;;;;;;;;;;5104861;28;20216;-44
2021/11/25 12:46:19;;;;;;;123.97;39.83;;;;;;;;;;5117587;28;20157;-44
2021/11/25 12:48:47;;;;;;;105.07;38.78;;;;;;;;;;5102843;28;20257;-45
2021/11/25 12:51:16;;;;;;;108.70;39.92;;;;;;;;;;5097110;28;20203;-44
2021/11/25 12:53:44;;;;;;;104.50;38.13;;;;;;;;;;5096245;28;20174;-44
2021/11/25 12:56:13;;;;;;;105.35;36.80;;;;;;;;;;5101101;28;20211;-44
2021/11/25 12:58:49;;;;;;;100.80;36.80;;;;;;;;;;5113934;27;20185;-44
2021/11/25 13:01:19;;;;;;;99.00;35.53;;;;;;;;;;5107632;27;20181;-44
2021/11/25 13:03:45;;;;;;;100.60;34.65;;;;;;;;;;5125398;27;20568;-44
2021/11/25 13:06:12;;;;;;;92.10;33.15;;;;;;;;;;5115807;27;20196;-44
2021/11/25 13:08:40;;;;;;;86.43;31.73;;;;;;;;;;5122248;27;20184;-44
2021/11/25 13:11:17;;;;;;;82.30;32.35;;;;;;;;;;5121684;27;20226;-44
2021/11/25 13:13:44;;;;;;;83.65;31.02;;;;;;;;;;5105764;27;20173;-44
2021/11/25 13:16:12;;;;;;;86.15;31.38;;;;;;;;;;5128972;27;20603;-44
2021/11/25 13:19:07;;;;;;;73.55;30.25;;;;;;;;;;5119691;27;20182;-44
2021/11/25 13:21:34;;;;;;;71.93;30.27;;;;;;;;;;5118257;27;20477;-44
2021/11/25 13:24:04;;;;;;;71.43;29.45;;;;;;;;;;5095650;28;20166;-44
2021/11/25 13:27:03;;;;;;;80.35;29.70;;;;;;;;;;5093982;28;20324;-44
2021/11/25 13:29:34;;;;;;;78.95;27.70;;;;;;;;;;5059841;28;20294;-44
2021/11/25 13:32:00;;;;;;;70.15;27.02;;;;;;;;;;5105895;28;20184;-44
2021/11/25 13:34:31;;;;;;;70.32;27.00;;;;;;;;;;5109752;27;20181;-44
2021/11/25 13:36:59;;;;;;;68.57;25.98;;;;;;;;;;5128191;27;20440;-44
2021/11/25 13:39:30;;;;;;;67.97;25.75;;;;;;;;;;5123259;27;20176;-44
2021/11/25 13:42:00;;;;;;;63.00;26.40;;;;;;;;;;5127207;27;20758;-44
2021/11/25 13:44:29;;;;;;;63.67;26.90;;;;;;;;;;5123020;27;20184;-44
2021/11/25 13:46:56;;;;;;;56.15;24.27;;;;;;;;;;5128240;27;20197;-44
2021/11/25 13:49:30;;;;;;;54.08;23.42;;;;;;;;;;5107997;27;20209;-46
2021/11/25 13:52:04;;;;;;;53.90;23.73;;;;;;;;;;5115604;27;20842;-44
2021/11/25 13:54:30;;;;;;;55.22;23.30;;;;;;;;;;5116445;27;20544;-44
2021/11/25 13:56:59;;;;;;;55.22;23.10;;;;;;;;;;5121683;27;20449;-44
2021/11/25 13:59:25;;;;;;;58.65;23.00;;;;;;;;;;5117118;27;20177;-44
2021/11/25 14:01:52;;;;;;;48.33;21.15;;;;;;;;;;5127852;27;20180;-44
2021/11/25 14:04:18;;;;;;;51.42;21.75;;;;;;;;;;5134327;27;20185;-44
2021/11/25 14:06:45;;;;;;;47.10;20.67;;;;;;;;;;5115961;27;20247;-44
2021/11/25 14:09:14;;;;;;;50.53;20.50;;;;;;;;;;5116104;28;20511;-44
2021/11/25 14:11:52;;;;;;;48.10;20.90;;;;;;;;;;5116077;28;20161;-44
2021/11/25 14:14:18;;;;;;;50.42;20.67;;;;;;;;;;5114557;28;20230;-44
2021/11/25 14:16:49;;;;;;;44.92;19.17;;;;;;;;;;5115772;28;20165;-44
2021/11/25 14:19:18;;;;;;;40.33;20.23;;;;;;;;;;5116027;28;20165;-45
2021/11/25 14:21:45;;;;;;;51.05;19.83;;;;;;;;;;5104391;28;20503;-44
2021/11/25 14:24:12;;;;;;;43.38;18.98;;;;;;;;;;5107367;28;20241;-44
2021/11/25 14:27:02;;;;;;;42.25;18.88;;;;;;;;;;5095221;28;20194;-44
2021/11/25 14:32:19;;;;;;;42.28;18.50;;;;;;;;;;5095104;28;20634;-44
2021/11/25 14:34:45;;;;;;;39.30;18.58;;;;;;;;;;5096434;28;20172;-44
2021/11/25 14:37:15;;;;;;;36.65;16.13;;;;;;;;;;5110223;27;20240;-44
2021/11/25 14:39:41;;;;;;;41.70;16.55;;;;;;;;;;5106120;27;20707;-44
2021/11/25 14:42:07;;;;;;;39.42;17.63;;;;;;;;;;5121758;27;20185;-44
2021/11/25 14:44:33;;;;;;;36.70;16.20;;;;;;;;;;5120873;27;20177;-44